This is the latest recevied weather packets stored in our database for station/object XE2KK-10. If no packets are shown the sender has not sent any weather packets the latest 1 day(s).
| Time | Temp. | Humidity | Pressure | Rain* | Wind** | Luminosity | Snow |
|---|---|---|---|---|---|---|---|
| 1778024652 | 40° C | 15% | 1003.1 hPa | 0 mm | 0 m/s | 97 W/m² | - |
| 1778024353 | 40° C | 15% | 1003.1 hPa | 0 mm | 0.45 m/s, 121° | 150 W/m² | - |
| 1778024052 | 39.44° C | 15% | 1003.2 hPa | 0 mm | 0.89 m/s, 121° | 151 W/m² | - |
| 1778023752 | 40° C | 16% | 1003 hPa | 0 mm | 0.45 m/s, 60° | 133 W/m² | - |
| 1778023452 | 40° C | 15% | 1003.1 hPa | 0 mm | 2.24 m/s, 71° | 113 W/m² | - |
| 1778023152 | 40° C | 15% | 1003.2 hPa | 0 mm | 0.89 m/s, 107° | 165 W/m² | - |
| 1778022852 | 40° C | 15% | 1003 hPa | 0 mm | 0.89 m/s, 90° | 223 W/m² | - |
| 1778022553 | 40° C | 16% | 1003.2 hPa | 0 mm | 1.34 m/s, 16° | 220 W/m² | - |
| 1778022262 | 40.56° C | 15% | 1003.3 hPa | 0 mm | 0.89 m/s, 237° | 378 W/m² | - |
| 1778021952 | 40° C | 15% | 1003.2 hPa | 0 mm | 0 m/s | 314 W/m² | - |
| 1778021653 | 40° C | 16% | 1003.1 hPa | 0 mm | 0.45 m/s, 320° | 269 W/m² | - |
| 1778021352 | 40° C | 16% | 1003.4 hPa | 0 mm | 0.45 m/s, 15° | 280 W/m² | - |
| 1778021052 | 40° C | 16% | 1003.3 hPa | 0 mm | 0.89 m/s, 2° | 246 W/m² | - |
| 1778020753 | 40° C | 16% | 1003.4 hPa | 0 mm | 0.89 m/s, 312° | 341 W/m² | - |
| 1778020452 | 40° C | 17% | 1003.5 hPa | 0 mm | 1.34 m/s, 49° | 294 W/m² | - |
| 1778020152 | 40° C | 17% | 1003.5 hPa | 0 mm | 0.89 m/s, 18° | 309 W/m² | - |
| 1778019853 | 40.56° C | 17% | 1003.4 hPa | 0 mm | 1.34 m/s, 76° | 316 W/m² | - |
| 1778019552 | 41.11° C | 16% | 1003.7 hPa | 0 mm | 0.89 m/s, 259° | 320 W/m² | - |
| 1778019252 | 40.56° C | 16% | 1003.7 hPa | 0 mm | 0.89 m/s, 251° | 334 W/m² | - |
| 1778018953 | 40.56° C | 16% | 1003.7 hPa | 0 mm | 1.34 m/s, 333° | 433 W/m² | - |
| 1778018653 | 40° C | 17% | 1003.8 hPa | 0 mm | 0.89 m/s, 100° | 381 W/m² | - |
| 1778018353 | 40.56° C | 17% | 1003.8 hPa | 0 mm | 1.79 m/s, 66° | 322 W/m² | - |
| 1778018053 | 41.11° C | 16% | 1003.7 hPa | 0 mm | 0.89 m/s, 271° | 462 W/m² | - |
| 1778017752 | 40.56° C | 16% | 1004 hPa | 0 mm | 0.89 m/s, 172° | 553 W/m² | - |
| 1778017452 | 40° C | 17% | 1004.3 hPa | 0 mm | 0.45 m/s, 156° | 572 W/m² | - |
* Rain latest hour (hover to see other rain measurements)
** Current wind speed in m/s (hover to see current wind gust speed)